createdAt,value
2018-08-25T00:00:26.699Z,100085.87
2018-08-25T00:02:54.488Z,100082.58
2018-08-25T00:05:22.269Z,100075.16
2018-08-25T00:07:50.043Z,100064.09
2018-08-25T00:10:17.949Z,100063.06
2018-08-25T00:12:45.750Z,100066.34
2018-08-25T00:15:13.566Z,100064.96
2018-08-25T00:17:41.387Z,100064.71
2018-08-25T00:20:09.303Z,100061.20
2018-08-25T00:22:37.122Z,100064.88
2018-08-25T00:25:04.952Z,100065.78
2018-08-25T00:27:32.803Z,100067.09
2018-08-25T00:30:00.615Z,100062.72
2018-08-25T00:32:28.362Z,100067.44
2018-08-25T00:34:56.151Z,100072.70
2018-08-25T00:37:23.944Z,100070.80
2018-08-25T00:39:51.703Z,100071.66
2018-08-25T00:42:19.563Z,100065.88
2018-08-25T00:44:47.567Z,100060.17
2018-08-25T00:47:15.512Z,100056.06
2018-08-25T00:49:43.340Z,100061.81
2018-08-25T00:52:11.183Z,100056.36
2018-08-25T00:54:39.061Z,100051.96
2018-08-25T00:57:06.863Z,100049.67
2018-08-25T00:59:34.699Z,100037.25
2018-08-25T01:02:02.532Z,100040.39
2018-08-25T01:04:30.275Z,100046.77
2018-08-25T01:06:58.115Z,100042.94
2018-08-25T01:09:25.899Z,100051.18
2018-08-25T01:11:53.704Z,100043.31
2018-08-25T01:14:21.488Z,100044.42
2018-08-25T01:16:49.274Z,100038.38
2018-08-25T01:19:17.118Z,100035.62
2018-08-25T01:21:45.023Z,100035.39
2018-08-25T01:24:12.800Z,100035.66
2018-08-25T01:26:40.648Z,100036.84
2018-08-25T01:29:08.388Z,100040.91
2018-08-25T01:31:36.220Z,100032.92
2018-08-25T01:34:04.097Z,100033.00
2018-08-25T01:36:31.955Z,100026.36
2018-08-25T01:38:59.831Z,100029.12
2018-08-25T01:41:27.648Z,100029.71
2018-08-25T01:43:55.465Z,100030.33
2018-08-25T01:46:23.313Z,100024.52
2018-08-25T01:48:51.059Z,100024.52
2018-08-25T01:51:18.815Z,100014.30
2018-08-25T01:53:46.628Z,100014.00
2018-08-25T01:56:14.420Z,100007.09
2018-08-25T01:58:42.296Z,100007.98
2018-08-25T02:01:10.139Z,100005.12
2018-08-25T02:03:37.844Z,100019.87
2018-08-25T02:06:05.719Z,100026.48
2018-08-25T02:08:33.519Z,100025.66
2018-08-25T02:11:01.356Z,100020.97
2018-08-25T02:13:29.159Z,100014.36
2018-08-25T02:15:57.045Z,100014.39
2018-08-25T02:18:24.856Z,100012.75
2018-08-25T02:20:52.635Z,100009.98
2018-08-25T02:23:20.456Z,100009.23
2018-08-25T02:25:48.339Z,100004.30
2018-08-25T02:28:16.895Z,100005.14
2018-08-25T02:30:44.623Z,100010.74
2018-08-25T02:33:12.401Z,100007.75
2018-08-25T02:35:40.283Z,100008.30
2018-08-25T02:38:08.051Z,100003.92
2018-08-25T02:40:35.928Z,99996.52
2018-08-25T02:43:03.856Z,99994.58
2018-08-25T02:45:31.708Z,99993.48
2018-08-25T02:47:59.473Z,99994.33
2018-08-25T02:50:27.267Z,99994.62
2018-08-25T02:52:55.115Z,100004.00
2018-08-25T02:55:22.921Z,100000.46
2018-08-25T02:57:50.809Z,99999.95
2018-08-25T03:00:18.596Z,99996.92
2018-08-25T03:02:46.402Z,99997.77
2018-08-25T03:05:14.212Z,99992.00
2018-08-25T03:07:41.912Z,99991.70
2018-08-25T03:10:09.775Z,99989.85
2018-08-25T03:12:37.579Z,99988.19
2018-08-25T03:15:05.371Z,99975.25
2018-08-25T03:17:33.187Z,99968.39
2018-08-25T03:20:01.043Z,99976.11
2018-08-25T03:22:28.839Z,99975.57
2018-08-25T03:24:56.634Z,99974.47
2018-08-25T03:27:24.395Z,99979.98
2018-08-25T03:29:52.207Z,99972.55
2018-08-25T03:32:20.032Z,99976.97
2018-08-25T03:34:47.879Z,99974.77
2018-08-25T03:37:15.660Z,99978.06
2018-08-25T03:39:43.507Z,99970.91
2018-08-25T03:42:11.352Z,99974.47
2018-08-25T03:44:39.181Z,99976.69
2018-08-25T03:47:07.006Z,99971.73
2018-08-25T03:49:34.817Z,99970.37
2018-08-25T03:52:02.564Z,99976.42
2018-08-25T03:54:30.344Z,99973.42
2018-08-25T03:56:58.160Z,99967.12
2018-08-25T03:59:25.923Z,99965.70
2018-08-25T04:01:53.727Z,99961.33
2018-08-25T04:04:21.575Z,99960.24
2018-08-25T04:06:49.412Z,99960.27
2018-08-25T04:09:17.279Z,99959.42
2018-08-25T04:11:45.085Z,99961.91
2018-08-25T04:14:13.020Z,99963.00
2018-08-25T04:16:40.846Z,99963.53
2018-08-25T04:19:19.316Z,99960.52
2018-08-25T04:21:47.699Z,99953.66
2018-08-25T04:24:15.560Z,99952.56
2018-08-25T04:26:43.372Z,99959.16
2018-08-25T04:29:11.356Z,99960.80
2018-08-25T04:31:39.108Z,99956.66
2018-08-25T04:34:06.904Z,99948.69
2018-08-25T04:36:34.811Z,99942.64
2018-08-25T04:39:03.848Z,99950.91
2018-08-25T04:41:31.632Z,99957.49
2018-08-25T04:43:59.446Z,99953.11
2018-08-25T04:46:27.339Z,99955.86
2018-08-25T04:48:55.108Z,99951.73
2018-08-25T04:51:22.963Z,99948.97
2018-08-25T04:53:50.792Z,99949.80
2018-08-25T04:56:18.600Z,99950.08
2018-08-25T04:58:46.334Z,99947.04
2018-08-25T05:01:14.144Z,99947.04
2018-08-25T05:03:48.807Z,99952.56
2018-08-25T05:06:16.627Z,99953.38
2018-08-25T05:08:44.658Z,99950.89
2018-08-25T05:11:12.404Z,99942.61
2018-08-25T05:13:40.180Z,99946.74
2018-08-25T05:16:08.117Z,99938.19
2018-08-25T05:18:35.944Z,99948.92
2018-08-25T05:21:03.801Z,99949.20
2018-08-25T05:23:31.595Z,99948.06
2018-08-25T05:25:59.336Z,99949.15
2018-08-25T05:28:27.076Z,99958.80
2018-08-25T05:30:54.856Z,99958.80
2018-08-25T05:33:22.611Z,99957.11
2018-08-25T05:35:50.380Z,99954.38
2018-08-25T05:38:18.952Z,99948.30
2018-08-25T05:40:46.772Z,99948.28
2018-08-25T05:43:14.731Z,99946.33
2018-08-25T05:45:42.519Z,99954.60
2018-08-25T05:48:10.361Z,99960.09
2018-08-25T05:50:38.147Z,99961.18
2018-08-25T05:53:06.212Z,99957.59
2018-08-25T05:55:34.035Z,99957.56
2018-08-25T05:58:01.834Z,99953.17
2018-08-25T06:00:29.692Z,99953.17
2018-08-25T06:02:57.636Z,99945.47
2018-08-25T06:05:25.415Z,99950.14
2018-08-25T06:07:53.160Z,99949.63
2018-08-25T06:10:21.264Z,99950.77
2018-08-25T06:12:49.030Z,99951.38
2018-08-25T06:15:16.769Z,99952.79
2018-08-25T06:17:44.799Z,99954.47
2018-08-25T06:20:12.568Z,99953.38
2018-08-25T06:22:40.315Z,99956.12
2018-08-25T06:25:08.799Z,99949.53
2018-08-25T06:27:36.928Z,99952.00
2018-08-25T06:30:05.134Z,99950.91
2018-08-25T06:32:32.949Z,99959.44
2018-08-25T06:35:00.839Z,99963.56
2018-08-25T06:37:28.731Z,99969.34
2018-08-25T06:39:56.556Z,99966.87
2018-08-25T06:42:24.399Z,99972.89
2018-08-25T06:44:52.289Z,99970.14
2018-08-25T06:47:20.340Z,99973.97
2018-08-25T06:49:48.132Z,99983.05
2018-08-25T06:52:16.059Z,99985.78
2018-08-25T06:54:43.856Z,99983.02
2018-08-25T06:57:11.788Z,99978.06
2018-08-25T06:59:39.743Z,99984.09
2018-08-25T07:02:07.503Z,99975.31
2018-08-25T07:04:35.323Z,99977.77
2018-08-25T07:07:03.197Z,99985.73
2018-08-25T07:09:31.166Z,99981.89
2018-08-25T07:11:58.983Z,99989.05
2018-08-25T07:14:26.782Z,99978.34
2018-08-25T07:16:54.583Z,99985.77
2018-08-25T07:19:22.355Z,99981.11
2018-08-25T07:21:50.092Z,99987.44
2018-08-25T07:24:21.161Z,99981.95
2018-08-25T07:26:49.365Z,99989.94
2018-08-25T07:29:17.175Z,99988.55
2018-08-25T07:31:44.971Z,99984.95
2018-08-25T07:34:12.716Z,99994.58
2018-08-25T07:36:40.574Z,99996.53
2018-08-25T07:39:10.951Z,99995.70
2018-08-25T07:41:38.945Z,100002.86
2018-08-25T07:44:06.800Z,100002.30
2018-08-25T07:46:34.556Z,99997.66
2018-08-25T07:49:02.360Z,100003.70
2018-08-25T07:51:30.107Z,99997.11
2018-08-25T07:53:57.866Z,99999.58
2018-08-25T07:56:25.619Z,100008.94
2018-08-25T07:58:53.492Z,100013.91
2018-08-25T08:01:21.278Z,100019.14
2018-08-25T08:03:55.848Z,100013.36
2018-08-25T08:06:23.741Z,100018.05
2018-08-25T08:08:51.542Z,100013.08
2018-08-25T08:11:19.375Z,100016.11
2018-08-25T08:13:47.223Z,100019.70
2018-08-25T08:16:15.030Z,100013.37
2018-08-25T08:18:42.795Z,100007.02
2018-08-25T08:21:10.567Z,100016.34
2018-08-25T08:23:38.417Z,100022.97
2018-08-25T08:26:06.255Z,100016.63
2018-08-25T08:28:34.056Z,100022.95
2018-08-25T08:31:01.851Z,100021.30
2018-08-25T08:33:29.683Z,100021.25
2018-08-25T08:35:57.538Z,100024.53
2018-08-25T08:38:25.397Z,100022.84
2018-08-25T08:40:53.211Z,100019.22
2018-08-25T08:43:21.013Z,100023.52
2018-08-25T08:45:48.827Z,100022.89
2018-08-25T08:48:16.700Z,100024.31
2018-08-25T08:50:44.504Z,100020.08
2018-08-25T08:53:12.321Z,100029.95
2018-08-25T08:55:40.158Z,100029.04
2018-08-25T08:58:08.008Z,100023.20
2018-08-25T09:00:35.806Z,100029.73
2018-08-25T09:03:03.615Z,100028.00
2018-08-25T09:05:31.421Z,100026.96
2018-08-25T09:07:59.223Z,100021.66
2018-08-25T09:10:27.043Z,100024.57
2018-08-25T09:12:54.799Z,100022.48
2018-08-25T09:15:22.560Z,100018.62
2018-08-25T09:17:50.323Z,100018.93
2018-08-25T09:20:18.107Z,100016.46
2018-08-25T09:22:45.955Z,100026.16
2018-08-25T09:25:13.788Z,100022.48
2018-08-25T09:27:41.576Z,100024.20
2018-08-25T09:30:09.419Z,100023.56
2018-08-25T09:32:37.211Z,100023.22
2018-08-25T09:35:05.051Z,100026.10
2018-08-25T09:37:33.095Z,100030.25
2018-08-25T09:40:00.976Z,100027.78
2018-08-25T09:42:28.744Z,100033.91
2018-08-25T09:44:56.487Z,100035.97
2018-08-25T09:47:24.228Z,100038.17
2018-08-25T09:49:52.040Z,100038.64
2018-08-25T09:52:19.864Z,100042.48
2018-08-25T09:54:47.615Z,100040.78
2018-08-25T09:57:15.439Z,100045.77
2018-08-25T09:59:43.224Z,100046.17
2018-08-25T10:02:11.075Z,100032.71
2018-08-25T10:04:38.840Z,100033.96
2018-08-25T10:07:06.705Z,100039.67
2018-08-25T10:09:34.544Z,100035.51
2018-08-25T10:12:02.327Z,100036.95
2018-08-25T10:14:30.096Z,100037.68
2018-08-25T10:16:57.985Z,100034.35
2018-08-25T10:19:25.770Z,100031.79
2018-08-25T10:21:53.490Z,100027.33
2018-08-25T10:24:21.240Z,100037.52
2018-08-25T10:26:49.020Z,100032.14
2018-08-25T10:29:16.801Z,100023.19
2018-08-25T10:31:44.642Z,100026.36
2018-08-25T10:34:12.507Z,100024.00
2018-08-25T10:36:40.500Z,100017.66
2018-08-25T10:39:10.459Z,100011.94
2018-08-25T10:41:38.366Z,100012.18
2018-08-25T10:44:06.707Z,99997.91
2018-08-25T10:46:34.787Z,99999.41
2018-08-25T10:49:02.563Z,100006.42
2018-08-25T10:51:30.675Z,100002.86
2018-08-25T10:53:58.497Z,100002.64
2018-08-25T10:56:26.315Z,99997.30
2018-08-25T10:58:54.125Z,100001.86
2018-08-25T11:01:21.923Z,100003.55
2018-08-25T11:03:49.763Z,100005.88
2018-08-25T11:06:17.583Z,100013.79
2018-08-25T11:08:45.435Z,100010.91
2018-08-25T11:11:13.308Z,100020.02
2018-08-25T11:13:41.112Z,100021.13
2018-08-25T11:16:08.937Z,100013.06
2018-08-25T11:18:36.779Z,100014.16
2018-08-25T11:21:04.723Z,100004.73
2018-08-25T11:23:32.483Z,100011.53
2018-08-25T11:26:00.212Z,100008.86
2018-08-25T11:28:27.999Z,100003.55
2018-08-25T11:30:55.775Z,100002.16
2018-08-25T11:33:23.600Z,99998.35
2018-08-25T11:35:51.408Z,100003.59
2018-08-25T11:38:19.179Z,99993.20
2018-08-25T11:40:46.979Z,99994.37
2018-08-25T11:43:14.802Z,99986.19
2018-08-25T11:45:42.536Z,99991.17
2018-08-25T11:48:10.406Z,99995.26
2018-08-25T11:50:38.208Z,99999.71
2018-08-25T11:53:06.073Z,100000.98
2018-08-25T11:55:33.930Z,99990.15
2018-08-25T11:58:01.883Z,99996.82
2018-08-25T12:00:29.771Z,99995.80
2018-08-25T12:02:57.588Z,99993.92
2018-08-25T12:05:25.296Z,100000.59
2018-08-25T12:07:53.144Z,99998.55
2018-08-25T12:10:20.956Z,99994.33
2018-08-25T12:12:48.722Z,100003.52
2018-08-25T12:15:16.487Z,100005.35
2018-08-25T12:17:44.303Z,100000.55
2018-08-25T12:20:12.180Z,100002.17
2018-08-25T12:22:39.883Z,100005.16
2018-08-25T12:25:07.952Z,100005.11
2018-08-25T12:27:42.956Z,100004.38
2018-08-25T12:30:11.268Z,100001.17
2018-08-25T12:32:39.100Z,99998.63
2018-08-25T12:35:06.994Z,100000.75
2018-08-25T12:37:34.820Z,100007.75
2018-08-25T12:40:02.881Z,100006.23
2018-08-25T12:42:30.755Z,100003.77
2018-08-25T12:45:01.981Z,100006.34
2018-08-25T12:47:29.735Z,100007.78
2018-08-25T12:49:57.935Z,100009.98
2018-08-25T12:52:25.722Z,100009.72
2018-08-25T12:54:53.599Z,100016.72
2018-08-25T12:57:21.724Z,100017.90
2018-08-25T12:59:49.916Z,100010.80
2018-08-25T13:02:17.716Z,100018.10
2018-08-25T13:04:45.547Z,100014.52
2018-08-25T13:07:14.181Z,100013.30
2018-08-25T13:09:42.907Z,100015.23
2018-08-25T13:12:11.439Z,100013.23
2018-08-25T13:14:42.416Z,100019.43
2018-08-25T13:17:22.183Z,100019.77
2018-08-25T13:19:51.964Z,100016.52
2018-08-25T13:22:19.791Z,100020.91
2018-08-25T13:24:47.670Z,100018.45
2018-08-25T13:27:18.567Z,100021.62
2018-08-25T13:29:46.343Z,100027.58
2018-08-25T13:32:14.274Z,100028.34
2018-08-25T13:34:42.223Z,100027.61
2018-08-25T13:37:10.825Z,100024.83
2018-08-25T13:39:38.570Z,100021.17
2018-08-25T13:42:06.767Z,100023.37
2018-08-25T13:44:34.628Z,100032.39
2018-08-25T13:47:02.475Z,100042.30
2018-08-25T13:49:30.285Z,100034.38
2018-08-25T13:51:58.076Z,100039.14
2018-08-25T13:54:26.918Z,100040.50
2018-08-25T13:56:54.724Z,100047.84
2018-08-25T13:59:22.520Z,100041.63
2018-08-25T14:01:50.411Z,100043.53
2018-08-25T14:04:18.375Z,100046.34
2018-08-25T14:06:46.186Z,100050.25
2018-08-25T14:09:14.040Z,100044.07
2018-08-25T14:11:41.884Z,100042.17
2018-08-25T14:14:09.756Z,100038.20
2018-08-25T14:16:37.547Z,100054.19
2018-08-25T14:19:05.367Z,100047.72
2018-08-25T14:21:33.187Z,100049.80
2018-08-25T14:24:00.967Z,100050.81
2018-08-25T14:26:28.852Z,100050.23
2018-08-25T14:28:56.697Z,100055.92
2018-08-25T14:31:24.416Z,100047.89
2018-08-25T14:33:52.144Z,100050.55
2018-08-25T14:36:20.273Z,100054.16
2018-08-25T14:38:47.980Z,100049.57
2018-08-25T14:41:15.803Z,100062.58
2018-08-25T14:43:43.731Z,100061.42
2018-08-25T14:46:11.703Z,100051.67
2018-08-25T14:48:39.572Z,100056.36
2018-08-25T14:51:07.843Z,100055.27
2018-08-25T14:53:42.173Z,100058.40
2018-08-25T14:56:11.237Z,100061.61
2018-08-25T14:58:39.055Z,100063.59
2018-08-25T15:01:06.912Z,100063.88
2018-08-25T15:03:34.634Z,100059.22
2018-08-25T15:06:02.374Z,100055.44
2018-08-25T15:08:30.702Z,100060.73
2018-08-25T15:10:58.795Z,100062.94
2018-08-25T15:13:26.638Z,100061.48
2018-08-25T15:15:58.697Z,100061.44
2018-08-25T15:18:37.835Z,100061.50
2018-08-25T15:21:06.096Z,100068.63
2018-08-25T15:23:33.921Z,100070.06
2018-08-25T15:26:02.247Z,100072.52
2018-08-25T15:28:30.034Z,100071.29
2018-08-25T15:30:57.953Z,100074.59
2018-08-25T15:33:25.695Z,100068.44
2018-08-25T15:35:53.563Z,100074.48
2018-08-25T15:38:21.344Z,100074.70
2018-08-25T15:40:49.168Z,100078.02
2018-08-25T15:43:17.012Z,100066.53
2018-08-25T15:45:44.808Z,100073.83
2018-08-25T15:48:12.736Z,100071.97
2018-08-25T15:50:40.834Z,100071.70
2018-08-25T15:53:08.626Z,100073.68
2018-08-25T15:55:36.451Z,100074.44
2018-08-25T15:58:04.723Z,100080.31
2018-08-25T16:00:37.601Z,100078.77
2018-08-25T16:03:05.552Z,100081.86
2018-08-25T16:05:36.461Z,100080.47
2018-08-25T16:08:04.540Z,100076.89
2018-08-25T16:10:34.970Z,100086.48
2018-08-25T16:13:02.836Z,100088.61
2018-08-25T16:15:30.934Z,100092.78
2018-08-25T16:17:58.860Z,100090.95
2018-08-25T16:20:26.651Z,100093.41
2018-08-25T16:22:54.480Z,100091.63
2018-08-25T16:25:22.956Z,100098.39
2018-08-25T16:27:50.704Z,100093.19
2018-08-25T16:30:18.761Z,100095.74
2018-08-25T16:32:46.697Z,100090.83
2018-08-25T16:35:15.184Z,100098.01
2018-08-25T16:37:43.088Z,100100.84
2018-08-25T16:40:19.673Z,100108.04
2018-08-25T16:42:51.748Z,100102.67
2018-08-25T16:45:19.624Z,100109.04
2018-08-25T16:47:47.530Z,100109.46
2018-08-25T16:50:15.475Z,100108.27
2018-08-25T16:52:43.336Z,100103.00
2018-08-25T16:55:11.160Z,100102.91
2018-08-25T16:57:39.630Z,100112.45
2018-08-25T17:00:07.924Z,100109.87
2018-08-25T17:02:35.974Z,100108.75
2018-08-25T17:05:03.922Z,100119.80
2018-08-25T17:07:31.704Z,100116.84
2018-08-25T17:09:59.528Z,100122.63
2018-08-25T17:12:27.292Z,100121.50
2018-08-25T17:14:55.039Z,100122.70
2018-08-25T17:17:23.127Z,100121.23
2018-08-25T17:19:50.888Z,100118.07
2018-08-25T17:22:18.685Z,100125.59
2018-08-25T17:24:46.533Z,100122.56
2018-08-25T17:27:14.543Z,100119.03
2018-08-25T17:29:42.390Z,100127.33
2018-08-25T17:32:11.347Z,100126.83
2018-08-25T17:34:39.167Z,100133.55
2018-08-25T17:37:07.106Z,100135.78
2018-08-25T17:39:34.911Z,100141.09
2018-08-25T17:42:02.676Z,100149.93
2018-08-25T17:44:30.475Z,100146.91
2018-08-25T17:46:58.292Z,100154.00
2018-08-25T17:49:26.083Z,100151.69
2018-08-25T17:51:53.915Z,100151.94
2018-08-25T17:54:21.684Z,100160.62
2018-08-25T17:56:49.567Z,100172.14
2018-08-25T17:59:17.339Z,100162.66
2018-08-25T18:01:45.192Z,100177.34
2018-08-25T18:04:13.135Z,100185.96
2018-08-25T18:06:40.880Z,100189.98
2018-08-25T18:09:08.656Z,100191.20
2018-08-25T18:11:36.575Z,100197.06
2018-08-25T18:14:04.389Z,100200.78
2018-08-25T18:16:32.223Z,100199.97
2018-08-25T18:19:00.073Z,100212.37
2018-08-25T18:21:27.953Z,100223.94
2018-08-25T18:23:55.754Z,100225.52
2018-08-25T18:26:23.625Z,100226.03
2018-08-25T18:28:51.399Z,100231.83
2018-08-25T18:31:19.244Z,100237.24
2018-08-25T18:33:47.023Z,100245.84
2018-08-25T18:36:14.743Z,100252.34
2018-08-25T18:38:42.596Z,100247.91
2018-08-25T18:41:10.355Z,100251.89
2018-08-25T18:43:38.227Z,100254.23
2018-08-25T18:46:06.047Z,100266.52
2018-08-25T18:48:33.920Z,100269.09
2018-08-25T18:51:01.839Z,100264.93
2018-08-25T18:53:29.663Z,100268.88
2018-08-25T18:55:57.512Z,100274.48
2018-08-25T18:58:25.290Z,100281.70
2018-08-25T19:00:53.094Z,100286.66
2018-08-25T19:03:20.927Z,100289.18
2018-08-25T19:05:48.791Z,100294.80
2018-08-25T19:08:16.606Z,100298.67
2018-08-25T19:10:45.110Z,100300.55
2018-08-25T19:13:13.436Z,100308.81
2018-08-25T19:15:41.228Z,100301.14
2018-08-25T19:18:09.019Z,100302.77
2018-08-25T19:20:36.787Z,100309.98
2018-08-25T19:23:04.635Z,100306.38
2018-08-25T19:25:32.450Z,100318.83
2018-08-25T19:28:00.378Z,100321.02
2018-08-25T19:30:28.191Z,100317.16
2018-08-25T19:32:56.013Z,100320.52
2018-08-25T19:35:23.846Z,100324.91
2018-08-25T19:37:51.599Z,100337.56
2018-08-25T19:40:19.312Z,100335.39
2018-08-25T19:42:47.124Z,100336.48
2018-08-25T19:45:15.279Z,100342.30
2018-08-25T19:47:43.124Z,100342.30
2018-08-25T19:50:10.988Z,100345.91
2018-08-25T19:52:38.823Z,100349.76
2018-08-25T19:55:06.656Z,100346.97
2018-08-25T19:57:34.401Z,100358.84
2018-08-25T20:00:02.265Z,100360.74
2018-08-25T20:02:31.244Z,100362.42
2018-08-25T20:04:59.092Z,100360.46
2018-08-25T20:07:26.879Z,100361.88
2018-08-25T20:09:55.248Z,100361.91
2018-08-25T20:12:23.076Z,100364.05
2018-08-25T20:14:50.976Z,100365.48
2018-08-25T20:17:18.776Z,100365.73
2018-08-25T20:19:46.686Z,100368.23
2018-08-25T20:22:14.965Z,100371.83
2018-08-25T20:24:42.974Z,100374.58
2018-08-25T20:27:11.344Z,100369.60
2018-08-25T20:29:39.095Z,100383.66
2018-08-25T20:32:06.956Z,100379.22
2018-08-25T20:34:34.802Z,100390.30
2018-08-25T20:37:02.597Z,100387.77
2018-08-25T20:39:31.230Z,100396.05
2018-08-25T20:41:59.075Z,100389.97
2018-08-25T20:44:26.855Z,100395.19
2018-08-25T20:46:54.620Z,100398.80
2018-08-25T20:49:22.459Z,100401.28
2018-08-25T20:51:50.952Z,100393.53
2018-08-25T20:54:19.045Z,100401.27
2018-08-25T20:56:47.214Z,100397.67
2018-08-25T20:59:15.020Z,100408.14
2018-08-25T21:01:42.745Z,100403.14
2018-08-25T21:04:10.605Z,100405.11
2018-08-25T21:06:38.408Z,100405.38
2018-08-25T21:09:08.668Z,100403.17
2018-08-25T21:11:37.512Z,100408.96
2018-08-25T21:14:05.788Z,100407.02
2018-08-25T21:16:34.526Z,100412.81
2018-08-25T21:19:02.655Z,100408.09
2018-08-25T21:21:31.845Z,100417.48
2018-08-25T21:23:59.771Z,100423.55
2018-08-25T21:26:27.573Z,100427.92
2018-08-25T21:28:56.279Z,100424.63
2018-08-25T21:31:24.100Z,100428.73
2018-08-25T21:33:51.892Z,100435.89
2018-08-25T21:36:19.723Z,100431.19
2018-08-25T21:38:47.858Z,100440.30
2018-08-25T21:41:15.692Z,100440.58
2018-08-25T21:43:43.487Z,100444.98
2018-08-25T21:46:11.284Z,100448.52
2018-08-25T21:48:39.372Z,100455.45
2018-08-25T21:51:11.979Z,100457.91
2018-08-25T21:53:40.010Z,100458.98
2018-08-25T21:56:08.318Z,100452.95
2018-08-25T21:58:36.124Z,100451.27
2018-08-25T22:01:03.950Z,100455.16
2018-08-25T22:03:31.741Z,100461.16
2018-08-25T22:05:59.557Z,100460.57
2018-08-25T22:08:27.359Z,100461.98
2018-08-25T22:10:59.783Z,100462.25
2018-08-25T22:13:28.588Z,100455.61
2018-08-25T22:15:56.411Z,100454.78
2018-08-25T22:18:24.208Z,100455.22
2018-08-25T22:20:52.056Z,100448.06
2018-08-25T22:23:19.850Z,100453.09
2018-08-25T22:25:48.338Z,100454.16
2018-08-25T22:28:16.268Z,100453.38
2018-08-25T22:30:44.499Z,100453.89
2018-08-25T22:33:12.252Z,100454.36
2018-08-25T22:35:40.043Z,100452.16
2018-08-25T22:38:07.904Z,100451.10
2018-08-25T22:40:43.027Z,100452.44
2018-08-25T22:43:10.859Z,100454.91
2018-08-25T22:45:38.619Z,100453.77
2018-08-25T22:48:06.414Z,100460.92
2018-08-25T22:50:34.215Z,100459.23
2018-08-25T22:53:01.964Z,100464.50
2018-08-25T22:55:29.829Z,100473.27
2018-08-25T22:57:58.053Z,100465.05
2018-08-25T23:03:00.601Z,100468.36
2018-08-25T23:05:28.443Z,100469.97
2018-08-25T23:08:02.664Z,100472.44
2018-08-25T23:10:42.518Z,100472.44
2018-08-25T23:13:13.759Z,100468.78
2018-08-25T23:15:41.555Z,100474.88
2018-08-25T23:18:09.351Z,100475.43
2018-08-25T23:20:37.119Z,100466.80
2018-08-25T23:23:04.971Z,100469.23
2018-08-25T23:25:32.819Z,100470.70
2018-08-25T23:28:01.476Z,100472.85
2018-08-25T23:30:29.328Z,100470.61
2018-08-25T23:32:57.123Z,100461.97
2018-08-25T23:35:24.952Z,100461.13
2018-08-25T23:37:52.774Z,100454.75
2018-08-25T23:40:20.603Z,100463.02
2018-08-25T23:42:48.447Z,100458.55
2018-08-25T23:45:16.271Z,100463.51
2018-08-25T23:47:44.049Z,100471.14
2018-08-25T23:50:11.790Z,100467.44
2018-08-25T23:52:39.594Z,100468.53
2018-08-25T23:55:07.878Z,100467.64
2018-08-25T23:57:35.635Z,100473.20
